createdAt,value
2018-09-11T00:00:56.534Z,4
2018-09-11T00:05:58.942Z,4
2018-09-11T00:11:01.433Z,4
2018-09-11T00:16:03.920Z,3
2018-09-11T00:21:06.431Z,3
2018-09-11T00:26:08.796Z,5
2018-09-11T00:31:11.522Z,4
2018-09-11T00:36:13.692Z,4
2018-09-11T00:41:16.175Z,3
2018-09-11T00:46:19.022Z,3
2018-09-11T00:51:21.555Z,4
2018-09-11T00:56:23.584Z,4
2018-09-11T01:01:26.005Z,4
2018-09-11T01:06:28.447Z,3
2018-09-11T01:11:30.897Z,4
2018-09-11T01:16:33.401Z,4
2018-09-11T01:21:35.823Z,4
2018-09-11T01:26:38.426Z,3
2018-09-11T01:31:40.756Z,4
2018-09-11T01:36:43.200Z,3
2018-09-11T01:41:45.666Z,3
2018-09-11T01:46:48.192Z,4
2018-09-11T01:51:50.571Z,3
2018-09-11T01:56:53.100Z,3
2018-09-11T02:01:55.479Z,4
2018-09-11T02:06:57.954Z,6
2018-09-11T02:12:00.403Z,5
2018-09-11T02:17:03.016Z,4
2018-09-11T02:22:10.341Z,5
2018-09-11T02:27:07.801Z,4
2018-09-11T02:32:10.258Z,4
2018-09-11T02:37:12.714Z,4
2018-09-11T02:42:15.177Z,4
2018-09-11T02:47:17.715Z,5
2018-09-11T02:52:20.093Z,4
2018-09-11T02:57:22.635Z,5
2018-09-11T03:02:25.017Z,5
2018-09-11T03:07:27.479Z,7
2018-09-11T03:12:29.997Z,6
2018-09-11T03:17:32.379Z,6
2018-09-11T03:22:34.819Z,6
2018-09-11T03:27:37.344Z,6
2018-09-11T03:32:39.722Z,7
2018-09-11T03:37:42.199Z,7
2018-09-11T03:42:44.641Z,8
2018-09-11T03:47:47.132Z,7
2018-09-11T03:52:49.674Z,8
2018-09-11T03:57:52.067Z,7
2018-09-11T04:02:54.479Z,6
2018-09-11T04:07:57.009Z,8
2018-09-11T04:12:59.403Z,7
2018-09-11T04:18:02.024Z,7
2018-09-11T04:23:04.335Z,8
2018-09-11T04:28:11.894Z,6
2018-09-11T04:33:09.355Z,6
2018-09-11T04:38:11.741Z,7
2018-09-11T04:43:14.148Z,6
2018-09-11T04:48:16.614Z,7
2018-09-11T04:53:19.141Z,7
2018-09-11T04:58:21.521Z,8
2018-09-11T05:03:24.016Z,7
2018-09-11T05:08:26.441Z,7
2018-09-11T05:13:28.893Z,8
2018-09-11T05:18:31.429Z,7
2018-09-11T05:23:33.994Z,7
2018-09-11T05:28:36.336Z,8
2018-09-11T05:33:38.727Z,7
2018-09-11T05:38:41.271Z,8
2018-09-11T05:43:43.887Z,8
2018-09-11T05:48:46.094Z,8
2018-09-11T05:53:48.557Z,8
2018-09-11T05:58:51.034Z,7
2018-09-11T06:03:53.561Z,8
2018-09-11T06:08:55.934Z,7
2018-09-11T06:13:58.498Z,8
2018-09-11T06:19:00.861Z,7
2018-09-11T06:24:03.583Z,7
2018-09-11T06:29:05.812Z,6
2018-09-11T06:34:08.236Z,6
2018-09-11T06:39:10.891Z,7
2018-09-11T06:44:13.218Z,6
2018-09-11T06:49:15.597Z,5
2018-09-11T06:54:18.605Z,6
2018-09-11T06:59:20.831Z,6
2018-09-11T07:04:23.108Z,5
2018-09-11T07:09:25.527Z,5
2018-09-11T07:14:27.925Z,5
2018-09-11T07:19:30.787Z,5
2018-09-11T07:24:32.899Z,5
2018-09-11T07:29:35.280Z,5
2018-09-11T07:34:37.743Z,5
2018-09-11T07:39:40.348Z,5
2018-09-11T07:44:42.689Z,4
2018-09-11T07:49:45.146Z,4
2018-09-11T07:54:47.792Z,4
2018-09-11T07:59:50.124Z,3
2018-09-11T08:04:52.629Z,3
2018-09-11T08:09:54.968Z,4
2018-09-11T08:14:57.426Z,3
2018-09-11T08:19:59.989Z,3
2018-09-11T08:25:02.404Z,3
2018-09-11T08:30:04.874Z,2
2018-09-11T08:35:07.340Z,3
2018-09-11T08:40:09.760Z,3
2018-09-11T08:45:12.190Z,3
2018-09-11T08:50:14.823Z,2
2018-09-11T08:55:17.173Z,3
2018-09-11T09:00:19.687Z,3
2018-09-11T09:05:22.020Z,3
2018-09-11T09:10:25.256Z,3
2018-09-11T09:15:27.278Z,3
2018-09-11T09:20:29.420Z,3
2018-09-11T09:25:31.853Z,3
2018-09-11T09:30:34.328Z,2
2018-09-11T09:35:36.795Z,2
2018-09-11T09:40:39.220Z,2
2018-09-11T09:45:41.687Z,3
2018-09-11T09:50:44.186Z,3
2018-09-11T09:55:46.626Z,3
2018-09-11T10:00:49.124Z,3
2018-09-11T10:05:51.516Z,2
2018-09-11T10:10:53.971Z,2
2018-09-11T10:15:56.476Z,2
2018-09-11T10:20:58.892Z,3
2018-09-11T10:26:01.484Z,3
2018-09-11T10:31:03.894Z,3
2018-09-11T10:36:06.346Z,2
2018-09-11T10:41:08.731Z,3
2018-09-11T10:46:11.394Z,3
2018-09-11T10:51:13.691Z,3
2018-09-11T10:56:16.118Z,3
2018-09-11T11:01:18.589Z,3
2018-09-11T11:06:21.091Z,3
2018-09-11T11:11:23.486Z,3
2018-09-11T11:16:25.933Z,3
2018-09-11T11:21:29.185Z,3
2018-09-11T11:26:30.859Z,2
2018-09-11T11:31:33.466Z,3
2018-09-11T11:36:35.885Z,2
2018-09-11T11:41:38.575Z,3
2018-09-11T11:46:40.770Z,3
2018-09-11T11:51:43.275Z,3
2018-09-11T11:56:45.636Z,2
2018-09-11T12:01:48.227Z,2
2018-09-11T12:06:50.669Z,3
2018-09-11T12:11:53.023Z,3
2018-09-11T12:16:55.551Z,2
2018-09-11T12:21:57.948Z,3
2018-09-11T12:27:00.696Z,2
2018-09-11T12:32:02.876Z,2
2018-09-11T12:37:05.319Z,2
2018-09-11T12:42:07.938Z,2
2018-09-11T12:47:10.301Z,3
2018-09-11T12:52:12.744Z,2
2018-09-11T12:57:15.143Z,3
2018-09-11T13:02:17.687Z,3
2018-09-11T13:07:20.041Z,3
2018-09-11T13:12:27.664Z,3
2018-09-11T13:17:24.974Z,2
2018-09-11T13:22:27.443Z,2
2018-09-11T13:27:29.895Z,3
2018-09-11T13:32:32.384Z,3
2018-09-11T13:37:34.792Z,2
2018-09-11T13:42:37.347Z,3
2018-09-11T13:47:39.720Z,2
2018-09-11T13:52:42.164Z,2
2018-09-11T13:57:44.610Z,2
2018-09-11T14:02:47.073Z,2
2018-09-11T14:07:49.579Z,2
2018-09-11T14:12:51.991Z,3
2018-09-11T14:17:54.508Z,2
2018-09-11T14:22:56.927Z,3
2018-09-11T14:27:59.529Z,2
2018-09-11T14:33:07.034Z,2
2018-09-11T14:38:04.319Z,2
2018-09-11T14:43:06.787Z,2
2018-09-11T14:48:09.217Z,3
2018-09-11T14:53:11.763Z,2
2018-09-11T14:58:14.191Z,3
2018-09-11T15:03:16.604Z,3
2018-09-11T15:08:19.037Z,3
2018-09-11T15:13:21.864Z,2
2018-09-11T15:18:24.023Z,2
2018-09-11T15:23:26.409Z,2
2018-09-11T15:28:29.175Z,2
2018-09-11T15:33:31.389Z,2
2018-09-11T15:38:33.817Z,2
2018-09-11T15:43:36.309Z,2
2018-09-11T15:48:38.762Z,2
2018-09-11T15:53:41.176Z,2
2018-09-11T15:58:43.622Z,3
2018-09-11T16:03:46.107Z,2
2018-09-11T16:08:48.554Z,2
2018-09-11T16:13:51.101Z,2
2018-09-11T16:18:53.608Z,2
2018-09-11T16:23:55.951Z,2
2018-09-11T16:28:58.407Z,2
2018-09-11T16:34:00.839Z,2
2018-09-11T16:39:03.424Z,2
2018-09-11T16:44:06.287Z,3
2018-09-11T16:49:08.220Z,4
2018-09-11T16:54:10.706Z,2
2018-09-11T16:59:13.162Z,2
2018-09-11T17:04:15.618Z,3
2018-09-11T17:09:18.093Z,2
2018-09-11T17:14:20.521Z,2
2018-09-11T17:19:23.035Z,3
2018-09-11T17:24:25.450Z,2
2018-09-11T17:29:27.898Z,2
2018-09-11T17:34:30.344Z,2
2018-09-11T17:39:32.870Z,2
2018-09-11T17:44:35.350Z,2
2018-09-11T17:49:37.828Z,2
2018-09-11T17:54:40.230Z,2
2018-09-11T17:59:42.678Z,3
2018-09-11T18:04:45.130Z,2
2018-09-11T18:09:47.575Z,2
2018-09-11T18:14:50.169Z,3
2018-09-11T18:19:52.485Z,3
2018-09-11T18:24:54.949Z,2
2018-09-11T18:29:57.433Z,3
2018-09-11T18:34:59.877Z,2
2018-09-11T18:40:02.347Z,2
2018-09-11T18:45:04.834Z,2
2018-09-11T18:50:07.456Z,3
2018-09-11T18:55:09.712Z,3
2018-09-11T19:00:12.227Z,2
2018-09-11T19:05:14.666Z,2
2018-09-11T19:10:17.070Z,3
2018-09-11T19:15:19.697Z,2
2018-09-11T19:20:22.108Z,2
2018-09-11T19:25:24.426Z,2
2018-09-11T19:30:26.964Z,2
2018-09-11T19:35:29.408Z,2
2018-09-11T19:40:31.853Z,2
2018-09-11T19:45:34.601Z,2
2018-09-11T19:50:36.845Z,2
2018-09-11T19:55:39.192Z,3
2018-09-11T20:00:41.788Z,3
2018-09-11T20:05:44.134Z,3
2018-09-11T20:10:46.689Z,2
2018-09-11T20:15:49.024Z,2
2018-09-11T20:20:51.537Z,2
2018-09-11T20:25:53.992Z,2
2018-09-11T20:30:56.386Z,2
2018-09-11T20:35:58.858Z,2
2018-09-11T20:41:01.320Z,2
2018-09-11T20:46:03.785Z,2
2018-09-11T20:51:06.565Z,2
2018-09-11T20:56:08.736Z,2
2018-09-11T21:01:11.124Z,2
2018-09-11T21:06:13.680Z,2
2018-09-11T21:11:16.074Z,2
2018-09-11T21:16:18.541Z,2
2018-09-11T21:21:21.052Z,2
2018-09-11T21:26:23.433Z,2
2018-09-11T21:31:25.887Z,1
2018-09-11T21:36:28.362Z,2
2018-09-11T21:41:30.837Z,2
2018-09-11T21:46:33.271Z,2
2018-09-11T21:51:35.776Z,2
2018-09-11T21:56:38.216Z,2
2018-09-11T22:01:40.646Z,2
2018-09-11T22:06:43.102Z,2
2018-09-11T22:11:45.831Z,2
2018-09-11T22:16:48.024Z,2
2018-09-11T22:21:50.481Z,3
2018-09-11T22:26:53.055Z,3
2018-09-11T22:31:55.370Z,3
2018-09-11T22:36:57.868Z,3
2018-09-11T22:42:00.338Z,3
2018-09-11T22:47:02.777Z,3
2018-09-11T22:52:05.261Z,3
2018-09-11T22:57:07.989Z,3
2018-09-11T23:02:10.287Z,3
2018-09-11T23:07:12.667Z,3
2018-09-11T23:12:15.049Z,4
2018-09-11T23:17:17.537Z,3
2018-09-11T23:22:20.010Z,4
2018-09-11T23:27:22.621Z,3
2018-09-11T23:32:24.892Z,2
2018-09-11T23:37:27.380Z,3
2018-09-11T23:42:29.823Z,4
2018-09-11T23:47:32.271Z,4
2018-09-11T23:52:34.846Z,4
2018-09-11T23:57:37.221Z,4
